createdAt,value
2019-01-12T00:01:17.541Z,-1.86
2019-01-12T00:03:49.047Z,-1.97
2019-01-12T00:06:20.453Z,-1.89
2019-01-12T00:08:51.877Z,-1.81
2019-01-12T00:11:23.197Z,-1.91
2019-01-12T00:13:54.638Z,-1.93
2019-01-12T00:16:25.998Z,-1.99
2019-01-12T00:18:57.310Z,-2.03
2019-01-12T00:21:28.655Z,-2.12
2019-01-12T00:24:00.089Z,-2.17
2019-01-12T00:26:31.481Z,-2.03
2019-01-12T00:29:02.856Z,-2.07
2019-01-12T00:31:33.957Z,-2.13
2019-01-12T00:34:05.447Z,-2.17
2019-01-12T00:36:36.764Z,-2.15
2019-01-12T00:39:09.375Z,-2.09
2019-01-12T00:41:40.800Z,-2.10
2019-01-12T00:44:12.056Z,-2.17
2019-01-12T00:46:43.321Z,-2.22
2019-01-12T00:49:14.412Z,-2.21
2019-01-12T00:51:45.526Z,-2.10
2019-01-12T00:54:16.639Z,-2.06
2019-01-12T00:56:47.677Z,-1.91
2019-01-12T00:59:18.868Z,-1.96
2019-01-12T01:01:49.916Z,-1.92
2019-01-12T01:04:21.068Z,-1.91
2019-01-12T01:06:52.149Z,-1.95
2019-01-12T01:09:23.324Z,-1.88
2019-01-12T01:11:54.823Z,-1.89
2019-01-12T01:14:26.055Z,-1.94
2019-01-12T01:16:57.475Z,-1.91
2019-01-12T01:19:28.611Z,-2.06
2019-01-12T01:21:59.681Z,-2.16
2019-01-12T01:24:31.273Z,-2.36
2019-01-12T01:27:02.623Z,-2.36
2019-01-12T01:29:33.719Z,-2.28
2019-01-12T01:32:05.183Z,-2.28
2019-01-12T01:34:36.261Z,-2.25
2019-01-12T01:37:08.686Z,-2.24
2019-01-12T01:39:39.938Z,-2.28
2019-01-12T01:42:11.226Z,-2.45
2019-01-12T01:44:42.620Z,-2.40
2019-01-12T01:47:13.823Z,-2.32
2019-01-12T01:49:45.068Z,-2.49
2019-01-12T01:52:16.290Z,-2.53
2019-01-12T01:54:52.788Z,-2.48
2019-01-12T01:57:20.806Z,-2.50
2019-01-12T01:59:51.908Z,-2.54
2019-01-12T02:02:23.223Z,-2.43
2019-01-12T02:04:54.492Z,-2.39
2019-01-12T02:07:25.594Z,-2.42
2019-01-12T02:09:58.029Z,-2.47
2019-01-12T02:12:29.531Z,-2.44
2019-01-12T02:15:00.846Z,-2.41
2019-01-12T02:17:32.036Z,-2.44
2019-01-12T02:20:03.194Z,-2.34
2019-01-12T02:22:34.608Z,-2.31
2019-01-12T02:25:06.715Z,-2.18
2019-01-12T02:27:38.118Z,-2.23
2019-01-12T02:30:13.944Z,-2.18
2019-01-12T02:32:45.008Z,-2.20
2019-01-12T02:35:16.407Z,-2.22
2019-01-12T02:37:47.845Z,-2.15
2019-01-12T02:40:19.202Z,-2.13
2019-01-12T02:42:50.809Z,-2.19
2019-01-12T02:45:22.322Z,-2.21
2019-01-12T02:47:54.798Z,-2.26
2019-01-12T02:50:26.141Z,-2.30
2019-01-12T02:52:57.433Z,-2.43
2019-01-12T02:55:28.677Z,-2.38
2019-01-12T02:58:00.065Z,-2.29
2019-01-12T03:00:31.434Z,-2.35
2019-01-12T03:03:02.765Z,-2.53
2019-01-12T03:05:33.979Z,-2.54
2019-01-12T03:08:05.845Z,-2.58
2019-01-12T03:10:37.193Z,-2.60
2019-01-12T03:13:08.466Z,-2.57
2019-01-12T03:15:39.773Z,-2.48
2019-01-12T03:18:11.176Z,-2.55
2019-01-12T03:20:42.626Z,-2.55
2019-01-12T03:23:13.949Z,-2.53
2019-01-12T03:25:45.104Z,-2.58
2019-01-12T03:28:16.413Z,-2.59
2019-01-12T03:30:47.718Z,-2.54
2019-01-12T03:33:19.115Z,-2.63
2019-01-12T03:35:50.260Z,-2.59
2019-01-12T03:38:21.643Z,-2.59
2019-01-12T03:40:53.090Z,-2.57
2019-01-12T03:43:24.208Z,-2.68
2019-01-12T03:45:55.752Z,-2.76
2019-01-12T03:48:26.819Z,-2.76
2019-01-12T03:50:58.331Z,-2.89
2019-01-12T03:53:29.643Z,-2.94
2019-01-12T03:56:00.929Z,-2.93
2019-01-12T03:58:32.102Z,-3.00
2019-01-12T04:01:03.479Z,-3.06
2019-01-12T04:03:34.979Z,-3.09
2019-01-12T04:06:06.342Z,-3.09
2019-01-12T04:08:37.767Z,-3.26
2019-01-12T04:11:08.893Z,-3.09
2019-01-12T04:13:40.207Z,-3.21
2019-01-12T04:16:11.684Z,-3.19
2019-01-12T04:18:42.949Z,-3.12
2019-01-12T04:21:14.279Z,-3.20
2019-01-12T04:23:45.686Z,-3.16
2019-01-12T04:26:16.851Z,-3.14
2019-01-12T04:28:47.971Z,-3.08
2019-01-12T04:31:19.263Z,-3.05
2019-01-12T04:33:50.536Z,-2.91
2019-01-12T04:36:21.830Z,-2.98
2019-01-12T04:38:53.983Z,-3.07
2019-01-12T04:41:25.087Z,-2.98
2019-01-12T04:43:56.389Z,-2.97
2019-01-12T04:46:27.915Z,-2.91
2019-01-12T04:48:59.182Z,-2.95
2019-01-12T04:51:30.605Z,-2.99
2019-01-12T04:54:01.770Z,-2.88
2019-01-12T04:56:33.101Z,-2.94
2019-01-12T04:59:04.399Z,-2.99
2019-01-12T05:01:35.666Z,-2.99
2019-01-12T05:04:06.938Z,-2.97
2019-01-12T05:06:38.321Z,-2.89
2019-01-12T05:09:10.056Z,-2.95
2019-01-12T05:11:41.337Z,-2.89
2019-01-12T05:14:12.707Z,-2.85
2019-01-12T05:16:44.147Z,-2.78
2019-01-12T05:19:15.219Z,-2.75
2019-01-12T05:21:46.323Z,-2.81
2019-01-12T05:24:17.443Z,-2.79
2019-01-12T05:26:48.593Z,-2.70
2019-01-12T05:29:19.672Z,-2.75
2019-01-12T05:31:50.888Z,-2.71
2019-01-12T05:34:22.069Z,-2.61
2019-01-12T05:36:53.403Z,-2.74
2019-01-12T05:39:24.502Z,-2.69
2019-01-12T05:41:55.927Z,-2.73
2019-01-12T05:44:26.988Z,-2.71
2019-01-12T05:46:58.580Z,-2.63
2019-01-12T05:49:29.603Z,-2.80
2019-01-12T05:52:01.049Z,-2.73
2019-01-12T05:54:32.453Z,-2.87
2019-01-12T05:57:03.862Z,-2.75
2019-01-12T05:59:35.142Z,-2.72
2019-01-12T06:02:06.616Z,-2.72
2019-01-12T06:04:37.992Z,-2.77
2019-01-12T06:07:09.538Z,-2.65
2019-01-12T06:09:40.614Z,-2.68
2019-01-12T06:12:12.191Z,-2.60
2019-01-12T06:14:43.658Z,-2.58
2019-01-12T06:17:15.098Z,-2.43
2019-01-12T06:19:46.366Z,-2.50
2019-01-12T06:22:17.782Z,-2.53
2019-01-12T06:24:49.102Z,-2.55
2019-01-12T06:27:20.435Z,-2.61
2019-01-12T06:29:51.659Z,-2.59
2019-01-12T06:32:23.100Z,-2.66
2019-01-12T06:34:54.427Z,-2.63
2019-01-12T06:37:25.895Z,-2.57
2019-01-12T06:39:57.237Z,-2.49
2019-01-12T06:42:29.033Z,-2.52
2019-01-12T06:45:00.551Z,-2.46
2019-01-12T06:47:32.830Z,-2.31
2019-01-12T06:50:04.794Z,-2.29
2019-01-12T06:52:36.035Z,-2.24
2019-01-12T06:55:08.543Z,-2.08
2019-01-12T06:57:39.944Z,-2.17
2019-01-12T07:00:14.326Z,-2.14
2019-01-12T07:02:45.706Z,-2.22
2019-01-12T07:05:17.265Z,-2.27
2019-01-12T07:07:48.551Z,-2.23
2019-01-12T07:10:20.014Z,-2.23
2019-01-12T07:12:51.427Z,-2.18
2019-01-12T07:15:22.640Z,-2.08
2019-01-12T07:17:54.277Z,-2.24
2019-01-12T07:20:25.618Z,-2.36
2019-01-12T07:22:57.981Z,-2.32
2019-01-12T07:25:29.586Z,-2.27
2019-01-12T07:28:01.091Z,-2.38
2019-01-12T07:30:32.596Z,-2.17
2019-01-12T07:33:04.242Z,-2.08
2019-01-12T07:35:35.637Z,-2.12
2019-01-12T07:38:07.177Z,-2.22
2019-01-12T07:40:38.461Z,-2.33
2019-01-12T07:43:09.724Z,-2.28
2019-01-12T07:45:41.220Z,-2.18
2019-01-12T07:48:12.390Z,-2.05
2019-01-12T07:50:43.582Z,-2.00
2019-01-12T07:53:14.883Z,-1.96
2019-01-12T07:55:46.279Z,-1.92
2019-01-12T07:58:17.419Z,-1.92
2019-01-12T08:00:48.725Z,-1.81
2019-01-12T08:03:20.117Z,-1.78
2019-01-12T08:05:51.587Z,-1.87
2019-01-12T08:08:23.001Z,-2.04
2019-01-12T08:10:54.350Z,-2.12
2019-01-12T08:13:26.006Z,-2.04
2019-01-12T08:15:57.421Z,-2.01
2019-01-12T08:18:28.567Z,-2.00
2019-01-12T08:20:59.868Z,-1.99
2019-01-12T08:23:31.153Z,-1.84
2019-01-12T08:26:02.666Z,-1.35
2019-01-12T08:28:33.948Z,-0.73
2019-01-12T08:31:05.169Z,-0.19
2019-01-12T08:33:36.750Z,0.18
2019-01-12T08:36:08.185Z,0.52
2019-01-12T08:38:39.722Z,0.44
2019-01-12T08:41:11.090Z,0.49
2019-01-12T08:43:42.542Z,0.63
2019-01-12T08:46:13.968Z,0.67
2019-01-12T08:48:45.608Z,0.33
2019-01-12T08:51:17.068Z,0.14
2019-01-12T08:53:48.574Z,-0.19
2019-01-12T08:56:19.899Z,-0.42
2019-01-12T08:58:51.294Z,-0.39
2019-01-12T09:01:23.037Z,-0.57
2019-01-12T09:03:54.166Z,-0.70
2019-01-12T09:06:25.338Z,-0.71
2019-01-12T09:08:56.773Z,-0.70
2019-01-12T09:11:27.892Z,-0.80
2019-01-12T09:13:59.223Z,-0.89
2019-01-12T09:16:30.538Z,-1.13
2019-01-12T09:19:01.818Z,-1.11
2019-01-12T09:21:33.290Z,-1.07
2019-01-12T09:24:04.892Z,-1.12
2019-01-12T09:26:36.224Z,-0.83
2019-01-12T09:29:07.554Z,-0.03
2019-01-12T09:31:38.956Z,0.31
2019-01-12T09:34:10.179Z,0.43
2019-01-12T09:36:41.510Z,0.96
2019-01-12T09:39:12.977Z,1.19
2019-01-12T09:41:44.221Z,1.48
2019-01-12T09:44:15.318Z,1.82
2019-01-12T09:46:46.611Z,2.15
2019-01-12T09:49:17.802Z,1.83
2019-01-12T09:51:49.296Z,1.65
2019-01-12T09:54:20.694Z,1.68
2019-01-12T09:56:52.020Z,1.65
2019-01-12T09:59:23.229Z,1.78
2019-01-12T10:01:54.356Z,1.31
2019-01-12T10:04:25.786Z,0.97
2019-01-12T10:06:57.204Z,0.80
2019-01-12T10:09:28.611Z,0.45
2019-01-12T10:11:59.828Z,0.67
2019-01-12T10:14:31.217Z,0.72
2019-01-12T10:17:02.417Z,0.36
2019-01-12T10:19:33.644Z,0.45
2019-01-12T10:22:05.314Z,0.42
2019-01-12T10:24:36.460Z,-0.02
2019-01-12T10:27:07.920Z,-0.63
2019-01-12T10:29:39.273Z,0.15
2019-01-12T10:32:10.474Z,0.65
2019-01-12T10:34:41.742Z,0.71
2019-01-12T10:37:12.843Z,1.10
2019-01-12T10:39:44.502Z,1.02
2019-01-12T10:42:15.521Z,1.46
2019-01-12T10:44:47.067Z,0.92
2019-01-12T10:47:18.485Z,0.61
2019-01-12T10:49:49.744Z,0.18
2019-01-12T10:52:20.969Z,0.13
2019-01-12T10:54:52.538Z,-0.22
2019-01-12T10:57:24.660Z,-0.13
2019-01-12T10:59:56.005Z,-0.18
2019-01-12T11:02:27.262Z,-0.15
2019-01-12T11:04:58.784Z,0.10
2019-01-12T11:07:29.843Z,0.02
2019-01-12T11:10:04.348Z,0.22
2019-01-12T11:12:34.205Z,0.53
2019-01-12T11:15:06.343Z,0.66
2019-01-12T11:17:37.481Z,0.38
2019-01-12T11:20:09.257Z,0.35
2019-01-12T11:22:41.124Z,0.04
2019-01-12T11:25:13.442Z,0.00
2019-01-12T11:27:45.018Z,0.23
2019-01-12T11:30:18.121Z,0.13
2019-01-12T11:32:49.788Z,0.28
2019-01-12T11:35:21.227Z,0.00
2019-01-12T11:37:52.714Z,0.04
2019-01-12T11:40:24.126Z,0.14
2019-01-12T11:42:55.493Z,-0.15
2019-01-12T11:45:27.993Z,-0.03
2019-01-12T11:47:59.359Z,0.29
2019-01-12T11:50:30.955Z,0.88
2019-01-12T11:53:02.303Z,1.17
2019-01-12T11:55:33.950Z,1.26
2019-01-12T11:58:05.644Z,0.87
2019-01-12T12:00:36.996Z,0.75
2019-01-12T12:03:08.555Z,0.62
2019-01-12T12:05:40.069Z,0.51
2019-01-12T12:08:11.450Z,0.23
2019-01-12T12:10:42.891Z,0.02
2019-01-12T12:13:14.324Z,0.07
2019-01-12T12:15:45.739Z,0.30
2019-01-12T12:18:17.074Z,0.81
2019-01-12T12:20:48.479Z,1.19
2019-01-12T12:23:19.929Z,1.69
2019-01-12T12:25:51.389Z,2.13
2019-01-12T12:28:22.612Z,1.85
2019-01-12T12:30:53.723Z,1.88
2019-01-12T12:33:25.053Z,2.15
2019-01-12T12:35:56.538Z,2.00
2019-01-12T12:38:27.931Z,1.74
2019-01-12T12:40:59.341Z,1.26
2019-01-12T12:43:30.683Z,0.91
2019-01-12T12:46:01.858Z,1.22
2019-01-12T12:48:33.533Z,0.95
2019-01-12T12:51:05.166Z,1.06
2019-01-12T12:53:36.505Z,0.69
2019-01-12T12:56:08.116Z,0.55
2019-01-12T12:58:39.583Z,0.50
2019-01-12T13:01:11.038Z,0.30
2019-01-12T13:03:42.540Z,0.09
2019-01-12T13:06:14.204Z,0.21
2019-01-12T13:08:48.569Z,-0.17
2019-01-12T13:11:18.461Z,-0.17
2019-01-12T13:13:49.893Z,-0.29
2019-01-12T13:16:21.024Z,-0.30
2019-01-12T13:18:52.666Z,-0.34
2019-01-12T13:21:24.149Z,-0.20
2019-01-12T13:23:55.522Z,-0.22
2019-01-12T13:26:26.907Z,-0.43
2019-01-12T13:28:58.476Z,-0.49
2019-01-12T13:31:29.972Z,-0.59
2019-01-12T13:34:01.227Z,-0.64
2019-01-12T13:36:32.421Z,-0.57
2019-01-12T13:39:03.974Z,-0.63
2019-01-12T13:41:36.258Z,-0.74
2019-01-12T13:44:07.457Z,-0.61
2019-01-12T13:46:38.802Z,-0.76
2019-01-12T13:49:10.261Z,-0.70
2019-01-12T13:51:41.745Z,-0.64
2019-01-12T13:54:13.204Z,-0.71
2019-01-12T13:56:44.433Z,-0.78
2019-01-12T13:59:15.728Z,-0.87
2019-01-12T14:01:46.989Z,-0.93
2019-01-12T14:04:18.130Z,-0.73
2019-01-12T14:06:49.444Z,-1.02
2019-01-12T14:09:22.307Z,-1.27
2019-01-12T14:11:53.784Z,-1.31
2019-01-12T14:14:24.939Z,-1.30
2019-01-12T14:16:56.397Z,-1.36
2019-01-12T14:19:27.775Z,-1.36
2019-01-12T14:21:58.890Z,-1.22
2019-01-12T14:24:30.274Z,-1.17
2019-01-12T14:27:01.554Z,-1.29
2019-01-12T14:29:32.808Z,-1.69
2019-01-12T14:32:04.056Z,-1.73
2019-01-12T14:34:35.142Z,-1.71
2019-01-12T14:37:06.770Z,-1.64
2019-01-12T14:39:37.909Z,-1.65
2019-01-12T14:42:09.032Z,-1.69
2019-01-12T14:44:40.186Z,-1.66
2019-01-12T14:47:11.502Z,-1.87
2019-01-12T14:49:42.559Z,-1.90
2019-01-12T14:52:14.061Z,-1.80
2019-01-12T14:54:45.431Z,-1.67
2019-01-12T14:57:16.836Z,-1.78
2019-01-12T14:59:47.915Z,-1.71
2019-01-12T15:02:19.111Z,-1.71
2019-01-12T15:04:50.557Z,-1.78
2019-01-12T15:07:21.940Z,-1.80
2019-01-12T15:09:53.014Z,-1.95
2019-01-12T15:12:24.147Z,-1.99
2019-01-12T15:14:55.625Z,-2.03
2019-01-12T15:17:26.873Z,-2.08
2019-01-12T15:19:58.263Z,-1.99
2019-01-12T15:22:29.398Z,-2.05
2019-01-12T15:25:00.787Z,-2.20
2019-01-12T15:27:32.281Z,-2.06
2019-01-12T15:30:04.246Z,-2.07
2019-01-12T15:32:35.640Z,-2.06
2019-01-12T15:35:06.963Z,-2.07
2019-01-12T15:37:38.399Z,-2.12
2019-01-12T15:40:11.407Z,-2.19
2019-01-12T15:42:42.909Z,-2.32
2019-01-12T15:45:17.306Z,-2.34
2019-01-12T15:47:48.524Z,-2.46
2019-01-12T15:50:21.460Z,-2.54
2019-01-12T15:52:52.774Z,-2.52
2019-01-12T15:55:24.515Z,-2.54
2019-01-12T15:57:55.971Z,-2.60
2019-01-12T16:00:28.782Z,-2.59
2019-01-12T16:03:00.166Z,-2.56
2019-01-12T16:05:31.849Z,-2.61
2019-01-12T16:08:03.192Z,-2.52
2019-01-12T16:10:34.346Z,-2.49
2019-01-12T16:13:05.946Z,-2.61
2019-01-12T16:15:37.206Z,-2.59
2019-01-12T16:18:08.494Z,-2.60
2019-01-12T16:20:43.206Z,-2.57
2019-01-12T16:23:15.017Z,-2.53
2019-01-12T16:25:46.354Z,-2.55
2019-01-12T16:28:23.276Z,-2.55
2019-01-12T16:30:50.845Z,-2.48
2019-01-12T16:33:22.066Z,-2.58
2019-01-12T16:35:53.422Z,-2.64
2019-01-12T16:38:24.983Z,-2.65
2019-01-12T16:40:56.145Z,-2.65
2019-01-12T16:43:27.600Z,-2.57
2019-01-12T16:45:59.189Z,-2.58
2019-01-12T16:48:30.633Z,-2.53
2019-01-12T16:51:02.081Z,-2.44
2019-01-12T16:53:33.390Z,-2.35
2019-01-12T16:56:04.537Z,-2.30
2019-01-12T16:58:35.983Z,-2.28
2019-01-12T17:01:07.384Z,-2.37
2019-01-12T17:03:38.530Z,-2.49
2019-01-12T17:06:10.022Z,-2.37
2019-01-12T17:08:41.345Z,-2.42
2019-01-12T17:11:12.790Z,-2.35
2019-01-12T17:13:44.385Z,-2.28
2019-01-12T17:16:15.988Z,-2.47
2019-01-12T17:18:47.384Z,-2.44
2019-01-12T17:21:18.634Z,-2.49
2019-01-12T17:23:49.751Z,-2.56
2019-01-12T17:26:21.174Z,-2.55
2019-01-12T17:28:52.311Z,-2.50
2019-01-12T17:31:23.666Z,-2.60
2019-01-12T17:33:55.130Z,-2.76
2019-01-12T17:36:26.364Z,-2.78
2019-01-12T17:38:57.811Z,-2.75
2019-01-12T17:41:29.169Z,-2.82
2019-01-12T17:44:00.647Z,-2.80
2019-01-12T17:46:32.054Z,-2.84
2019-01-12T17:49:03.493Z,-2.87
2019-01-12T17:51:34.605Z,-2.74
2019-01-12T17:54:06.309Z,-2.71
2019-01-12T17:56:37.410Z,-2.72
2019-01-12T17:59:08.793Z,-2.67
2019-01-12T18:01:40.355Z,-2.58
2019-01-12T18:04:11.743Z,-2.59
2019-01-12T18:06:43.148Z,-2.52
2019-01-12T18:09:14.497Z,-2.48
2019-01-12T18:11:45.956Z,-2.49
2019-01-12T18:14:18.052Z,-2.59
2019-01-12T18:16:49.120Z,-2.49
2019-01-12T18:19:21.316Z,-2.35
2019-01-12T18:21:52.430Z,-2.39
2019-01-12T18:24:23.771Z,-2.32
2019-01-12T18:26:54.933Z,-2.21
2019-01-12T18:29:26.351Z,-2.32
2019-01-12T18:31:57.436Z,-2.39
2019-01-12T18:34:28.906Z,-2.43
2019-01-12T18:37:00.005Z,-2.41
2019-01-12T18:39:31.459Z,-2.37
2019-01-12T18:42:03.149Z,-2.34
2019-01-12T18:44:34.435Z,-2.27
2019-01-12T18:47:05.711Z,-2.28
2019-01-12T18:49:36.954Z,-2.39
2019-01-12T18:52:08.225Z,-2.38
2019-01-12T18:54:39.737Z,-2.42
2019-01-12T18:57:11.048Z,-2.40
2019-01-12T18:59:42.300Z,-2.35
2019-01-12T19:02:13.678Z,-2.30
2019-01-12T19:04:45.125Z,-2.35
2019-01-12T19:07:16.442Z,-2.30
2019-01-12T19:09:47.810Z,-2.26
2019-01-12T19:12:19.006Z,-2.25
2019-01-12T19:14:50.548Z,-2.22
2019-01-12T19:17:21.612Z,-2.17
2019-01-12T19:19:52.754Z,-2.29
2019-01-12T19:22:24.231Z,-2.33
2019-01-12T19:24:55.707Z,-2.44
2019-01-12T19:27:26.941Z,-2.48
2019-01-12T19:29:58.179Z,-2.45
2019-01-12T19:32:29.252Z,-2.45
2019-01-12T19:35:00.385Z,-2.43
2019-01-12T19:37:31.529Z,-2.35
2019-01-12T19:40:02.740Z,-2.30
2019-01-12T19:42:34.071Z,-2.31
2019-01-12T19:45:06.370Z,-2.35
2019-01-12T19:47:37.901Z,-2.31
2019-01-12T19:50:11.309Z,-2.25
2019-01-12T19:52:42.556Z,-2.26
2019-01-12T19:55:13.958Z,-2.27
2019-01-12T19:57:45.027Z,-2.28
2019-01-12T20:00:21.730Z,-2.30
2019-01-12T20:02:53.049Z,-2.10
2019-01-12T20:05:24.457Z,-2.14
2019-01-12T20:07:56.553Z,-2.13
2019-01-12T20:10:27.879Z,-2.17
2019-01-12T20:12:59.285Z,-2.12
2019-01-12T20:15:30.679Z,-2.14
2019-01-12T20:18:01.734Z,-2.10
2019-01-12T20:20:32.942Z,-2.11
2019-01-12T20:23:04.376Z,-2.00
2019-01-12T20:25:35.938Z,-1.88
2019-01-12T20:28:10.624Z,-1.95
2019-01-12T20:31:12.942Z,-1.91
2019-01-12T20:34:29.235Z,-1.99
2019-01-12T20:37:49.207Z,-2.06
2019-01-12T20:41:00.681Z,-1.94
2019-01-12T20:44:09.604Z,-1.83
2019-01-12T20:47:22.029Z,-1.76
2019-01-12T20:50:27.480Z,-1.64
2019-01-12T20:53:24.715Z,-1.55
2019-01-12T20:56:16.252Z,-1.55
2019-01-12T20:59:09.817Z,-1.79
2019-01-12T21:02:05.671Z,-1.73
2019-01-12T21:05:22.459Z,-1.60
2019-01-12T21:08:34.529Z,-1.57
2019-01-12T21:11:32.453Z,-1.67
2019-01-12T21:14:33.243Z,-1.71
2019-01-12T21:17:12.379Z,-1.60
2019-01-12T21:19:47.986Z,-1.68
2019-01-12T21:22:16.313Z,-1.67
2019-01-12T21:24:47.741Z,-1.65
2019-01-12T21:27:19.245Z,-1.55
2019-01-12T21:29:50.887Z,-1.51
2019-01-12T21:32:22.248Z,-1.38
2019-01-12T21:34:53.524Z,-1.30
2019-01-12T21:37:24.923Z,-1.19
2019-01-12T21:39:56.440Z,-1.29
2019-01-12T21:42:27.856Z,-1.20
2019-01-12T21:44:59.064Z,-1.21
2019-01-12T21:47:30.375Z,-1.32
2019-01-12T21:50:01.817Z,-1.32
2019-01-12T21:52:33.007Z,-1.21
2019-01-12T21:55:04.771Z,-1.28
2019-01-12T21:57:37.272Z,-1.18
2019-01-12T22:00:11.851Z,-1.11
2019-01-12T22:02:43.126Z,-1.20
2019-01-12T22:05:14.758Z,-1.21
2019-01-12T22:07:46.080Z,-1.21
2019-01-12T22:10:19.287Z,-1.15
2019-01-12T22:12:50.621Z,-1.15
2019-01-12T22:15:22.021Z,-0.95
2019-01-12T22:17:53.310Z,-0.94
2019-01-12T22:20:24.800Z,-0.99
2019-01-12T22:22:56.209Z,-1.09
2019-01-12T22:25:27.598Z,-1.03
2019-01-12T22:27:59.110Z,-1.00
2019-01-12T22:30:30.385Z,-1.09
2019-01-12T22:33:01.811Z,-1.04
2019-01-12T22:35:33.219Z,-1.11
2019-01-12T22:38:04.609Z,-1.06
2019-01-12T22:40:35.900Z,-1.00
2019-01-12T22:43:07.358Z,-0.93
2019-01-12T22:45:38.521Z,-0.86
2019-01-12T22:48:10.014Z,-0.91
2019-01-12T22:50:41.163Z,-0.95
2019-01-12T22:53:12.406Z,-0.94
2019-01-12T22:55:43.860Z,-0.98
2019-01-12T22:58:15.231Z,-1.15
2019-01-12T23:01:06.943Z,-1.07
2019-01-12T23:03:38.570Z,-1.06
2019-01-12T23:06:09.825Z,-1.15
2019-01-12T23:08:41.155Z,-1.12
2019-01-12T23:11:12.649Z,-1.21
2019-01-12T23:13:44.077Z,-1.11
2019-01-12T23:16:15.559Z,-1.15
2019-01-12T23:18:47.066Z,-1.06
2019-01-12T23:21:18.261Z,-1.06
2019-01-12T23:23:49.558Z,-0.92
2019-01-12T23:26:20.745Z,-1.10
2019-01-12T23:28:52.226Z,-1.06
2019-01-12T23:31:23.541Z,-0.99
2019-01-12T23:33:54.901Z,-1.08
2019-01-12T23:36:26.410Z,-1.00
2019-01-12T23:38:57.879Z,-0.93
2019-01-12T23:41:29.073Z,-0.90
2019-01-12T23:44:00.431Z,-1.03
2019-01-12T23:46:31.844Z,-0.99
2019-01-12T23:49:03.306Z,-0.95
2019-01-12T23:51:34.697Z,-0.85
2019-01-12T23:54:06.020Z,-0.85
2019-01-12T23:56:37.053Z,-0.74
2019-01-12T23:59:08.415Z,-0.66
